Share

Anaktuvuk Pass, AK

8:41 PM AKDT on April 23, 2014 (GMT -0800)
Anaktuvuk Pass (PAKP) Elev 2103 ft | 68.13 °N, 151.74 °W | Change Station

Current weather conditions updated 5 minutes ago

Partly Cloudy
Partly Cloudy
25 °F
Feels Like 16 °F
N
8
Wind Variable Wind from NNE
Sunrise 5:38 AM
Sunset 10:35 PM
Moon Waning Crescent

Tomorrow is forecast to be Warmer than today.

Pressure 29.71 in
Visibility 10.0 miles
Clouds Few 900 ft
Windchill 16 °F
Dew Point 19 °F
Humidity 80%
Rainfall 0.00 in
Snow Depth Not available.
UV 0 out of 16
Pollen Not available.
Air Quality Not available.
Flu Activity Sporadic
METAR PAKP 240436Z AUTO 03007KT 10SM FEW009 M04/M07 A2971 RMK AO1

More Conditions Fewer Conditions

Pressure 29.71 in
Visibility 10.0 miles
Clouds Few 900 ft
Windchill 16 °F
Dew Point 19 °F
Humidity 80%
Rainfall 0.00 in
Snow Depth Not available.
UV 0 out of 16
Pollen Not available.
Air Quality Not available.
Flu Activity Sporadic
METAR PAKP 240436Z AUTO 03007KT 10SM FEW009 M04/M07 A2971 RMK AO1

More Conditions Fewer Conditions

10-Day Weather Forecast

Almanac

Astronomy

Apr. 23, 2014 Rise Set
Actual Time 5:38 AM AKDT 10:35 PM AKDT
Civil Twilight 4:14 AM AKDT 12:01 AM AKDT
Nautical Twilight Sun does not rise Sun does not rise
Astronomical Twilight Sun does not rise Sun does not rise
Moon 5:10 AM AKDT (4/23) 2:09 PM AKDT (4/23)
Length of Visible Light 19h 46m
Length of Day
16h 56m
Tomorrow will be 8m 45s longer.
Waning Crescent, 29% of the Moon is Illuminated
Apr 24
Waning Crescent
Apr 29
New
May 6
First Quarter
May 14
Full
May 21
Last Quarter

Yesterday's Extremes

State Highs State Lows

Community

  • Stacked
    Stacked
  • Balance
    Balance
  • Nestled In
    Nestled In
  • Stunning Sunrise
    Stunning Sunrise
  • spring flowers
    spring flowers

WunderPhotos

Upload Photos

1,704,562 photos uploaded!

WunderBlogs® & News

Nearby

Snow Depth

Station Depth Elevation
Atigun Pass 36 in 4800 ft
Imnaviat Creek 26 in 3050 ft
Coldfoot 21 in 1040 ft
Gobblers Knob 6 in 2030 ft
Fort Yukon 14 in 430 ft

Coastal Water Temperatures

Place Temperature
No Stations Reporting

Earthquake Activity

City Distance Mag. Time & Date
No recent earthquake activity has been reported nearby.
Minimum magnitude displayed is 2.5.

Nearby Weather Stations

There are no personal weather stations in this area.

What do you think?

We're not finished. Please let us know what you like, what you don't like, and what you are still missing.